Disclaimer

Please do not use the information listed here in-flight or in-navigation, as they are not provided to us by the airports but are provided by volunteers, so they might be outdated.

Search


Regions


Airport information page

Radio informations:
MELBOURNE RADAR - 135.7 MHz
Automatic Terminal Information Service (ATIS) - 116.1 MHz

Airport informations:
Latitude: 38° 02' 22.00" S
Longitude: 144° 28' 10.00" E
Elevation: 35 feet - 11 meters
Operating hours: N/A
Operating agency: Private
Timezone: UTC+10(+11DT)
Fuel: Jet A1+, Jet A1 with icing inhibitor.

Jet A1, without icing nhibitor.

Runway information:
18/36 - 10000 x 148 feet< - >3048 x 45 meters

Recent METARs:
YMAV 142000Z AUTO 28007KT 9999 // SCT033 11/10 Q1022 RF00.0/000.4
YMAV 142100Z AUTO 23006KT 9999 // NCD 14/09 Q1023
YMAV 142100Z AUTO 23006KT 9999 // NCD 14/09 Q1023 RF00.0/000.4

Airport on the map: